Taos, Missouri
Current Conditions -  °F | °C
As of 5:53 PM on Friday 28 Nov 2014 (Local Time) from KJEF Reporting Station
Clear Clear  
Wind Chill: 51°   Ceiling: Unl
Heat Index: 51°   Visibility: 10mi
Dew Point: 33°   Wind: 8mph
Humidity: 50%   Direction: 120°ESE
Pressure: 29.87"   Gusts: NA
Location:  38.5003°N, 92.1516°W
Report Text: KJEF 282353Z 12007KT 10SM CLR 11/01 A2987 RMK AO2 SLP106 T01060006 10161 20106 56007 $
Loading
Personal Weather Stations






























Interactive Weather Map New forecast layout! Learn more

10-Day Weather Forecast

Advertisements
Track Severe Weather on mobile